Time;durP1;ratioP1;P1;durP2;ratioP2;P2;SDS_P1;SDS_P2;PMS_P1;PMS_P2;Temp;Humidity;BMP_temperature;BMP_pressure;BME280_temperature;BME280_humidity;BME280_pressure;Samples;Min_cycle;Max_cycle;Signal;HPM_P1;HPM_P2
2023/02/17 00:00:59;;;;;;;7.68;3.95;;;;;;;8.35;100.00;99615.09;4954532;28;20378;-68
2023/02/17 00:03:25;;;;;;;12.18;4.07;;;;;;;8.37;100.00;99607.69;4983669;28;20416;-67
2023/02/17 00:05:51;;;;;;;10.20;4.13;;;;;;;8.39;100.00;99612.94;5000488;28;20028;-68
2023/02/17 00:08:16;;;;;;;7.40;3.80;;;;;;;8.46;100.00;99606.72;4959556;28;20363;-67
2023/02/17 00:10:42;;;;;;;7.85;4.13;;;;;;;8.50;100.00;99616.16;4952428;28;20031;-67
2023/02/17 00:13:07;;;;;;;9.27;4.40;;;;;;;8.49;100.00;99611.78;5001272;28;20032;-68
2023/02/17 00:15:32;;;;;;;12.82;5.47;;;;;;;8.40;100.00;99607.38;4978530;28;20027;-68
2023/02/17 00:17:58;;;;;;;8.43;4.03;;;;;;;8.27;100.00;99601.63;4980069;28;20135;-68
2023/02/17 00:20:23;;;;;;;11.27;4.38;;;;;;;8.20;100.00;99600.63;4977821;28;20026;-68
2023/02/17 00:22:48;;;;;;;6.97;4.22;;;;;;;8.18;100.00;99602.66;5039828;28;20358;-68
2023/02/17 00:25:20;;;;;;;8.60;4.20;;;;;;;8.22;100.00;99588.66;4979327;28;20036;-68
2023/02/17 00:27:45;;;;;;;7.25;4.05;;;;;;;8.26;100.00;99595.41;4975531;28;20096;-68
2023/02/17 00:30:17;;;;;;;8.13;3.97;;;;;;;8.30;100.00;99590.50;5025879;28;20073;-69
2023/02/17 00:32:42;;;;;;;10.57;3.58;;;;;;;8.27;100.00;99596.25;4970207;28;20024;-68
2023/02/17 00:35:21;;;;;;;6.88;3.60;;;;;;;8.32;100.00;99600.09;4996831;28;20026;-68
2023/02/17 00:37:53;;;;;;;6.97;3.10;;;;;;;8.37;100.00;99590.69;4975875;28;20031;-68
2023/02/17 00:40:19;;;;;;;6.80;3.40;;;;;;;8.50;100.00;99596.44;4980009;28;20428;-68
2023/02/17 00:42:44;;;;;;;9.60;4.03;;;;;;;8.55;100.00;99594.06;4995869;28;20023;-68
2023/02/17 00:45:09;;;;;;;7.45;3.60;;;;;;;8.55;100.00;99594.91;5066783;28;20119;-68
2023/02/17 00:47:35;;;;;;;9.48;4.30;;;;;;;8.50;100.00;99596.44;4967918;28;20141;-67
2023/02/17 00:50:00;;;;;;;8.32;3.65;;;;;;;8.48;100.00;99599.28;4985410;28;20048;-67
2023/02/17 00:52:26;;;;;;;11.93;4.03;;;;;;;8.57;100.00;99602.84;4992435;28;20050;-67
2023/02/17 00:54:51;;;;;;;7.90;3.80;;;;;;;8.62;100.00;99599.59;4980275;28;20038;-67
2023/02/17 00:57:16;;;;;;;8.45;4.05;;;;;;;8.62;100.00;99596.91;5006631;28;20020;-67
2023/02/17 00:59:42;;;;;;;9.88;4.38;;;;;;;8.60;100.00;99590.84;5020101;28;20535;-67
2023/02/17 01:02:07;;;;;;;12.88;4.20;;;;;;;8.64;100.00;99593.03;4986981;28;20563;-67
2023/02/17 01:04:32;;;;;;;7.97;3.92;;;;;;;8.66;100.00;99590.16;4985114;28;20466;-68
2023/02/17 01:06:58;;;;;;;8.85;3.85;;;;;;;8.71;100.00;99598.59;4981153;28;20050;-67
2023/02/17 01:09:24;;;;;;;9.40;4.28;;;;;;;8.66;100.00;99592.84;4990975;28;20038;-66
2023/02/17 01:11:49;;;;;;;10.00;3.97;;;;;;;8.64;100.00;99609.19;5039431;28;20021;-67
2023/02/17 01:14:14;;;;;;;7.70;3.83;;;;;;;8.61;100.00;99595.22;4988107;28;20023;-67
2023/02/17 01:16:44;;;;;;;11.02;3.70;;;;;;;8.62;100.00;99584.28;4992685;28;20482;-68
2023/02/17 01:19:12;;;;;;;6.38;3.85;;;;;;;8.64;100.00;99581.41;4974177;28;20034;-67
2023/02/17 01:21:38;;;;;;;13.85;4.25;;;;;;;8.65;100.00;99577.69;4990973;28;20051;-68
2023/02/17 01:24:06;;;;;;;7.72;3.80;;;;;;;8.66;100.00;99579.38;4967280;28;20054;-68
2023/02/17 01:26:33;;;;;;;7.60;3.40;;;;;;;8.67;100.00;99576.50;4976391;28;20019;-68
2023/02/17 01:28:59;;;;;;;7.93;3.65;;;;;;;8.68;100.00;99574.66;5013576;28;20046;-68
2023/02/17 01:31:25;;;;;;;8.27;3.50;;;;;;;8.67;100.00;99575.66;5020143;28;20023;-68
2023/02/17 01:33:52;;;;;;;7.63;3.78;;;;;;;8.71;100.00;99580.53;4977976;28;20125;-67
2023/02/17 01:36:19;;;;;;;6.20;3.72;;;;;;;8.65;100.00;99575.00;4981355;28;20055;-68
2023/02/17 01:38:47;;;;;;;6.22;3.20;;;;;;;8.61;100.00;99577.19;4970731;28;20027;-66
2023/02/17 01:41:15;;;;;;;8.43;3.90;;;;;;;8.56;100.00;99566.91;4975782;28;20118;-67
2023/02/17 01:43:41;;;;;;;9.88;4.43;;;;;;;8.56;100.00;99561.50;4963128;28;20054;-66
2023/02/17 01:46:11;;;;;;;8.30;3.92;;;;;;;8.59;100.00;99559.50;5015557;28;20465;-67
2023/02/17 01:48:49;;;;;;;14.30;3.92;;;;;;;8.55;100.00;99557.13;4969797;28;20073;-67
2023/02/17 01:51:20;;;;;;;7.15;3.38;;;;;;;8.59;100.00;99554.09;5008184;28;20026;-66
2023/02/17 01:53:51;;;;;;;8.75;4.00;;;;;;;8.61;100.00;99543.97;5025071;28;20133;-66
2023/02/17 01:56:17;;;;;;;6.90;3.30;;;;;;;8.61;100.00;99560.16;4987731;28;20386;-67
2023/02/17 01:58:49;;;;;;;9.88;3.25;;;;;;;8.62;100.00;99559.13;4969128;28;20471;-66
2023/02/17 02:01:15;;;;;;;6.38;3.28;;;;;;;8.70;100.00;99551.88;4975671;28;20027;-66
2023/02/17 02:03:43;;;;;;;12.27;3.70;;;;;;;8.74;100.00;99553.22;4977718;28;20484;-65
2023/02/17 02:06:13;;;;;;;6.45;3.45;;;;;;;8.76;100.00;99547.66;5011569;28;20121;-66
2023/02/17 02:09:08;;;;;;;5.47;2.80;;;;;;;8.73;100.00;99542.59;4965419;28;20027;-66
2023/02/17 02:11:35;;;;;;;7.78;2.92;;;;;;;8.67;100.00;99551.38;5008119;28;20038;-66
2023/02/17 02:14:03;;;;;;;6.90;3.53;;;;;;;8.64;100.00;99552.56;5035876;28;20390;-67
2023/02/17 02:16:41;;;;;;;9.80;2.95;;;;;;;8.63;100.00;99539.25;5066563;28;20044;-67
2023/02/17 02:19:44;;;;;;;7.07;3.33;;;;;;;8.59;100.00;99540.59;4969402;28;20128;-67
2023/02/17 02:22:47;;;;;;;6.35;2.78;;;;;;;8.55;100.00;99534.72;4970365;28;20543;-66
2023/02/17 02:25:43;;;;;;;5.95;3.22;;;;;;;8.49;100.00;99547.06;4967088;28;20116;-66
2023/02/17 02:28:46;;;;;;;5.90;3.28;;;;;;;8.49;100.00;99538.13;4981672;28;20122;-67
2023/02/17 02:31:36;;;;;;;7.38;3.95;;;;;;;8.47;100.00;99543.69;4988334;28;20027;-67
2023/02/17 02:34:15;;;;;;;5.70;3.28;;;;;;;8.47;100.00;99532.88;5072148;28;20020;-67
2023/02/17 02:37:06;;;;;;;4.95;2.75;;;;;;;8.52;100.00;99543.16;4970481;28;20027;-68
2023/02/17 02:39:38;;;;;;;7.97;3.20;;;;;;;8.52;100.00;99525.13;4972576;28;20031;-68
2023/02/17 02:42:15;;;;;;;12.30;3.15;;;;;;;8.44;100.00;99535.09;4968043;28;20392;-68
2023/02/17 02:44:41;;;;;;;6.00;3.20;;;;;;;8.42;100.00;99529.88;4973337;28;20030;-68
2023/02/17 02:47:44;;;;;;;7.47;3.25;;;;;;;8.42;100.00;99529.88;5029839;28;20026;-68
2023/02/17 02:50:14;;;;;;;6.78;3.13;;;;;;;8.43;100.00;99509.13;4973617;28;20065;-68
2023/02/17 02:53:15;;;;;;;12.50;3.05;;;;;;;8.35;100.00;99501.88;4992419;28;20031;-66
2023/02/17 02:55:51;;;;;;;6.38;3.08;;;;;;;8.34;100.00;99519.91;4976441;28;20023;-66
2023/02/17 02:58:23;;;;;;;8.60;3.45;;;;;;;8.30;100.00;99513.16;4972518;28;20055;-67
2023/02/17 03:00:53;;;;;;;8.85;3.53;;;;;;;8.33;100.00;99509.28;4966662;28;20050;-67
2023/02/17 03:03:30;;;;;;;6.63;2.80;;;;;;;8.29;100.00;99513.34;5013375;28;20020;-67
2023/02/17 03:06:13;;;;;;;5.28;2.90;;;;;;;8.30;100.00;99504.22;5029580;28;20076;-67
2023/02/17 03:08:51;;;;;;;5.47;2.55;;;;;;;8.37;100.00;99496.31;4966526;28;20037;-66
2023/02/17 03:11:31;;;;;;;8.02;3.05;;;;;;;8.37;100.00;99489.06;4957823;28;20037;-66
2023/02/17 03:14:00;;;;;;;4.80;2.72;;;;;;;8.40;100.00;99491.44;4971290;28;20160;-65
2023/02/17 03:16:25;;;;;;;;;;;;;;;8.37;100.00;99494.44;5004699;28;20067;-65
2023/02/17 03:18:51;;;;;;;9.07;2.65;;;;;;;8.34;100.00;99489.41;5015314;28;19958;-66
2023/02/17 03:21:18;;;;;;;7.75;3.00;;;;;;;8.35;100.00;99485.69;5004661;28;20030;-66
2023/02/17 03:23:43;;;;;;;5.70;2.80;;;;;;;8.43;100.00;99495.66;4971442;28;20031;-67
2023/02/17 03:26:09;;;;;;;6.43;2.45;;;;;;;8.40;100.00;99490.59;4977367;28;20041;-67
2023/02/17 03:28:35;;;;;;;4.47;2.75;;;;;;;8.43;100.00;99484.84;4975072;28;20117;-67
2023/02/17 03:31:00;;;;;;;7.57;2.80;;;;;;;8.47;100.00;99488.91;4984693;28;20529;-67
2023/02/17 03:33:25;;;;;;;6.55;3.00;;;;;;;8.43;100.00;99496.47;4974937;28;20483;-68
2023/02/17 03:35:51;;;;;;;7.93;3.10;;;;;;;8.35;100.00;99504.56;5056523;28;20380;-68
2023/02/17 03:38:16;;;;;;;4.38;2.85;;;;;;;8.33;100.00;99507.44;5003898;28;20022;-67
2023/02/17 03:40:42;;;;;;;7.82;3.22;;;;;;;8.24;100.00;99504.94;5010014;28;20027;-67
2023/02/17 03:43:07;;;;;;;8.68;3.10;;;;;;;8.23;100.00;99509.47;4987627;28;20143;-67
2023/02/17 03:45:35;;;;;;;6.32;3.15;;;;;;;8.28;100.00;99504.44;4990521;28;20436;-67
2023/02/17 03:48:01;;;;;;;4.65;2.63;;;;;;;8.32;100.00;99491.44;5030935;28;20402;-67
2023/02/17 03:50:26;;;;;;;5.75;3.10;;;;;;;8.30;100.00;99486.19;4976583;28;20039;-67
2023/02/17 03:52:52;;;;;;;8.50;3.00;;;;;;;8.25;100.00;99502.06;4977886;28;20810;-67
2023/02/17 03:55:18;;;;;;;6.95;3.25;;;;;;;8.29;100.00;99508.78;4993810;28;20029;-67
2023/02/17 03:57:43;;;;;;;7.70;3.08;;;;;;;8.27;100.00;99509.97;5016327;28;20027;-67
2023/02/17 04:00:09;;;;;;;6.45;2.83;;;;;;;8.27;100.00;99510.81;4973822;28;20027;-67
2023/02/17 04:02:35;;;;;;;7.43;2.83;;;;;;;8.31;100.00;99505.94;4970815;28;20041;-67
2023/02/17 04:05:00;;;;;;;5.88;2.90;;;;;;;8.27;100.00;99509.97;4971934;28;20019;-67
2023/02/17 04:07:26;;;;;;;6.80;2.95;;;;;;;8.24;100.00;99511.16;5014491;28;20327;-67
2023/02/17 04:09:52;;;;;;;6.88;3.22;;;;;;;8.23;100.00;99511.34;4980378;28;20057;-67
2023/02/17 04:12:17;;;;;;;7.03;3.22;;;;;;;8.23;100.00;99516.72;4970705;28;20113;-67
2023/02/17 04:14:43;;;;;;;8.15;3.30;;;;;;;8.27;100.00;99515.38;4958845;28;20137;-67
2023/02/17 04:17:08;;;;;;;6.13;2.83;;;;;;;8.28;100.00;99517.91;4965722;28;20138;-67
2023/02/17 04:19:33;;;;;;;5.70;2.58;;;;;;;8.32;100.00;99510.31;4965056;28;20027;-67
2023/02/17 04:21:59;;;;;;;10.35;2.97;;;;;;;8.37;100.00;99515.19;5018349;28;20027;-67
2023/02/17 04:24:24;;;;;;;7.45;2.88;;;;;;;8.41;100.00;99511.16;4966473;28;20031;-67
2023/02/17 04:26:50;;;;;;;4.78;2.78;;;;;;;8.42;100.00;99512.84;5015507;28;20106;-67
2023/02/17 04:29:15;;;;;;;6.20;2.60;;;;;;;8.44;100.00;99514.38;4973741;28;20038;-67
2023/02/17 04:31:40;;;;;;;7.47;2.60;;;;;;;8.44;100.00;99510.84;4970937;28;20375;-67
2023/02/17 04:34:06;;;;;;;8.00;3.10;;;;;;;8.44;100.00;99502.75;4968882;28;20062;-67
2023/02/17 04:36:31;;;;;;;6.22;2.75;;;;;;;8.42;100.00;99502.91;4981237;28;20565;-67
2023/02/17 04:38:56;;;;;;;7.95;3.45;;;;;;;8.45;100.00;99493.63;4968397;28;20030;-67
2023/02/17 04:41:22;;;;;;;10.93;3.33;;;;;;;8.43;100.00;99501.88;4977705;28;20026;-67
2023/02/17 04:43:47;;;;;;;7.43;3.05;;;;;;;8.40;100.00;99504.91;4967745;28;20046;-67
2023/02/17 04:46:12;;;;;;;8.23;2.63;;;;;;;8.41;100.00;99503.94;4969646;28;20452;-66
2023/02/17 04:48:38;;;;;;;9.13;2.67;;;;;;;8.48;100.00;99501.38;4972699;28;20092;-66
2023/02/17 04:51:04;;;;;;;10.23;2.83;;;;;;;8.48;100.00;99507.59;5018839;28;20143;-66
2023/02/17 04:53:29;;;;;;;5.38;2.75;;;;;;;8.49;100.00;99492.28;4969772;28;20491;-67
2023/02/17 04:55:54;;;;;;;5.50;2.90;;;;;;;8.47;100.00;99491.59;4972943;28;20035;-67
2023/02/17 04:58:20;;;;;;;8.77;2.85;;;;;;;8.46;100.00;99488.06;4975855;28;20034;-66
2023/02/17 05:00:48;;;;;;;6.45;3.17;;;;;;;8.47;100.00;99488.91;4962057;28;20060;-67
2023/02/17 05:03:13;;;;;;;4.50;3.33;;;;;;;8.42;100.00;99489.41;5018538;28;20030;-66
2023/02/17 05:05:38;;;;;;;9.85;2.83;;;;;;;8.35;100.00;99480.28;5001524;28;20023;-66
2023/02/17 05:08:04;;;;;;;6.78;2.80;;;;;;;8.40;100.00;99493.31;4965797;28;20072;-66
2023/02/17 05:10:30;;;;;;;10.85;3.20;;;;;;;8.46;100.00;99496.16;4960453;28;20077;-66
2023/02/17 05:12:55;;;;;;;7.60;2.90;;;;;;;8.44;100.00;99503.56;4972269;28;20023;-66
2023/02/17 05:15:20;;;;;;;9.02;3.20;;;;;;;8.35;100.00;99501.88;4989509;28;20027;-66
2023/02/17 05:17:46;;;;;;;9.25;2.78;;;;;;;8.32;100.00;99499.50;4956287;28;20035;-66
2023/02/17 05:20:11;;;;;;;12.15;3.10;;;;;;;8.29;100.00;99511.47;4988469;28;20035;-65
2023/02/17 05:22:37;;;;;;;10.10;3.03;;;;;;;8.36;100.00;99514.34;4965627;28;20042;-66
2023/02/17 05:25:03;;;;;;;8.13;3.65;;;;;;;8.34;100.00;99510.97;4989900;28;20073;-66
2023/02/17 05:27:28;;;;;;;11.25;4.05;;;;;;;8.35;100.00;99518.03;4977825;28;20031;-66
2023/02/17 05:29:54;;;;;;;8.65;3.92;;;;;;;8.42;100.00;99521.78;4951963;28;20068;-67
2023/02/17 05:32:20;;;;;;;7.20;2.78;;;;;;;8.30;100.00;99512.31;4973113;28;20364;-66
2023/02/17 05:34:46;;;;;;;10.23;3.63;;;;;;;8.28;100.00;99515.22;4964622;28;20035;-66
2023/02/17 05:37:11;;;;;;;12.85;3.40;;;;;;;8.35;100.00;99513.47;4977168;28;20534;-65
2023/02/17 05:39:37;;;;;;;5.82;2.95;;;;;;;8.29;100.00;99494.47;4972192;28;20032;-65
2023/02/17 05:42:02;;;;;;;7.45;3.10;;;;;;;8.31;100.00;99514.84;4991217;28;20026;-66
2023/02/17 05:44:27;;;;;;;7.38;2.83;;;;;;;8.34;100.00;99514.50;4983141;28;20034;-65
2023/02/17 05:46:53;;;;;;;7.47;3.15;;;;;;;8.53;100.00;99510.63;5059641;28;20019;-66
2023/02/17 05:49:41;;;;;;;6.53;2.67;;;;;;;8.59;100.00;99513.63;4965200;28;20090;-65
2023/02/17 05:52:06;;;;;;;7.07;2.58;;;;;;;8.72;100.00;99513.94;4975925;28;20019;-65
2023/02/17 05:54:32;;;;;;;8.57;2.88;;;;;;;8.78;100.00;99514.09;4967530;28;20100;-65
2023/02/17 05:56:57;;;;;;;9.05;2.55;;;;;;;8.83;100.00;99523.50;4980100;28;20051;-65
2023/02/17 05:59:24;;;;;;;6.03;2.50;;;;;;;8.81;100.00;99529.09;4987852;28;20058;-66
2023/02/17 06:01:49;;;;;;;5.45;2.50;;;;;;;8.87;100.00;99525.69;4978973;28;20025;-68
2023/02/17 06:04:15;;;;;;;4.30;2.55;;;;;;;8.84;100.00;99525.19;4974710;28;20027;-69
2023/02/17 06:06:40;;;;;;;8.95;3.03;;;;;;;8.81;100.00;99529.09;4995190;28;20015;-69
2023/02/17 06:09:05;;;;;;;10.23;3.08;;;;;;;8.84;100.00;99527.91;4974014;28;20106;-69
2023/02/17 06:11:31;;;;;;;5.95;2.65;;;;;;;8.80;100.00;99532.78;4970866;28;20034;-69
2023/02/17 06:13:56;;;;;;;6.40;3.22;;;;;;;8.70;100.00;99529.47;4965918;28;20035;-69
2023/02/17 06:16:22;;;;;;;5.72;3.00;;;;;;;8.76;100.00;99542.25;4972933;28;20042;-69
2023/02/17 06:18:47;;;;;;;8.18;3.05;;;;;;;8.79;100.00;99536.50;4966697;28;20028;-69
2023/02/17 06:21:13;;;;;;;7.43;3.00;;;;;;;8.80;100.00;99538.19;4977152;28;20031;-69
2023/02/17 06:23:38;;;;;;;5.93;2.92;;;;;;;8.84;100.00;99544.94;5034331;28;20035;-69
2023/02/17 06:26:03;;;;;;;4.68;2.22;;;;;;;8.80;100.00;99540.03;4975596;28;20026;-70
2023/02/17 06:28:29;;;;;;;8.45;3.78;;;;;;;8.76;100.00;99539.56;4976117;28;20031;-69
2023/02/17 06:30:55;;;;;;;11.65;3.55;;;;;;;8.83;100.00;99540.56;4961418;28;20050;-70
2023/02/17 06:33:23;;;;;;;4.30;2.53;;;;;;;8.78;100.00;99540.22;4962267;28;20085;-69
2023/02/17 06:35:50;;;;;;;6.40;2.75;;;;;;;8.76;100.00;99539.56;4982157;28;20101;-69
2023/02/17 06:38:16;;;;;;;9.73;2.90;;;;;;;8.74;100.00;99539.72;4994102;28;20045;-69
2023/02/17 06:40:41;;;;;;;5.72;2.90;;;;;;;8.83;100.00;99542.38;4978116;28;20367;-69
2023/02/17 06:43:07;;;;;;;6.45;2.60;;;;;;;8.83;100.00;99551.34;5002961;28;20028;-70
2023/02/17 06:45:32;;;;;;;6.38;2.97;;;;;;;8.82;100.00;99556.91;5028301;28;20041;-70
2023/02/17 06:47:57;;;;;;;7.15;2.95;;;;;;;8.86;100.00;99552.84;4963381;28;20417;-69
2023/02/17 06:50:23;;;;;;;9.27;3.28;;;;;;;8.89;100.00;99547.94;4975753;28;20547;-62
2023/02/17 06:52:48;;;;;;;6.65;2.95;;;;;;;8.90;100.00;99557.72;4974796;28;20088;-62
2023/02/17 06:55:14;;;;;;;6.57;3.45;;;;;;;8.92;100.00;99554.84;4983106;28;20030;-65
2023/02/17 06:57:39;;;;;;;8.27;3.38;;;;;;;8.92;100.00;99555.69;4971090;28;20023;-66
2023/02/17 07:00:05;;;;;;;14.82;3.65;;;;;;;8.96;100.00;99551.63;4986021;28;20055;-66
2023/02/17 07:02:31;;;;;;;7.65;3.30;;;;;;;9.02;100.00;99546.56;5023478;28;20463;-65
2023/02/17 07:04:56;;;;;;;7.40;3.28;;;;;;;8.97;100.00;99556.00;4982095;28;20118;-63
2023/02/17 07:07:22;;;;;;;10.85;2.85;;;;;;;9.05;100.00;99554.28;4965005;28;20475;-62
2023/02/17 07:09:47;;;;;;;5.25;2.97;;;;;;;8.91;100.00;99539.69;4962397;28;20031;-62
2023/02/17 07:12:12;;;;;;;5.60;2.75;;;;;;;9.08;100.00;99570.13;5016049;28;20545;-62
2023/02/17 07:14:48;;;;;;;10.85;3.28;;;;;;;9.13;100.00;99563.19;5047292;28;20035;-66
2023/02/17 07:17:14;;;;;;;5.22;2.70;;;;;;;9.15;100.00;99574.66;4991376;28;20096;-65
2023/02/17 07:19:39;;;;;;;7.30;3.13;;;;;;;9.24;100.00;99563.81;4972868;28;20030;-65
2023/02/17 07:22:06;;;;;;;9.77;2.80;;;;;;;9.25;100.00;99579.88;4971613;28;20026;-65
2023/02/17 07:24:32;;;;;;;4.80;2.50;;;;;;;9.30;100.00;99576.59;4982585;28;20023;-65
2023/02/17 07:26:59;;;;;;;9.38;3.30;;;;;;;9.32;100.00;99574.59;4984065;28;20022;-65
2023/02/17 07:29:26;;;;;;;6.30;3.38;;;;;;;9.32;100.00;99585.38;4970161;28;20019;-65
2023/02/17 07:31:52;;;;;;;7.78;3.38;;;;;;;9.33;100.00;99577.13;4989604;28;20031;-65
2023/02/17 07:34:17;;;;;;;10.45;4.10;;;;;;;9.35;100.00;99574.22;4980609;28;20037;-65
2023/02/17 07:36:43;;;;;;;8.07;3.22;;;;;;;9.35;100.00;99588.59;4969190;28;20414;-65
2023/02/17 07:39:08;;;;;;;7.82;3.85;;;;;;;9.46;100.00;99583.78;4971233;28;20045;-65
2023/02/17 07:41:40;;;;;;;8.20;3.75;;;;;;;9.46;100.00;99578.38;4972810;28;20031;-65
2023/02/17 07:44:05;;;;;;;8.38;3.72;;;;;;;9.49;100.00;99578.06;4963647;28;20490;-65
2023/02/17 07:46:31;;;;;;;13.27;4.72;;;;;;;9.52;100.00;99585.81;4973225;28;20073;-64
2023/02/17 07:48:57;;;;;;;15.88;4.95;;;;;;;9.61;100.00;99573.91;5005481;28;20083;-62
2023/02/17 07:51:23;;;;;;;7.32;3.10;;;;;;;9.60;100.00;99574.94;4961753;28;20157;-62
2023/02/17 07:53:50;;;;;;;7.82;2.95;;;;;;;9.56;100.00;99571.78;4993468;28;20035;-62
2023/02/17 07:56:17;;;;;;;11.40;3.30;;;;;;;9.62;100.00;99575.63;4987468;28;20031;-62
2023/02/17 07:58:44;;;;;;;5.70;3.22;;;;;;;9.69;100.00;99570.31;4997515;28;20031;-62
2023/02/17 08:01:16;;;;;;;7.85;3.00;;;;;;;9.75;100.00;99583.13;4978944;28;20030;-62
2023/02/17 08:03:42;;;;;;;5.60;2.65;;;;;;;9.92;100.00;99587.38;4985939;28;20075;-62
2023/02/17 08:06:25;;;;;;;5.70;2.90;;;;;;;10.02;100.00;99589.88;4997691;28;20107;-63
2023/02/17 08:14:23;;;;;;;6.03;3.63;;;;;;;10.01;100.00;99596.31;4966783;28;20034;-62
2023/02/17 08:16:48;;;;;;;11.75;4.00;;;;;;;10.04;100.00;99596.78;4969862;28;20031;-66
2023/02/17 08:19:14;;;;;;;12.35;3.92;;;;;;;10.10;100.00;99589.78;4973761;28;20027;-62
2023/02/17 08:21:39;;;;;;;8.10;3.10;;;;;;;10.07;100.00;99595.56;4977898;28;20027;-62
2023/02/17 08:24:05;;;;;;;4.88;3.00;;;;;;;10.14;100.00;99592.97;4967061;28;20031;-62
2023/02/17 08:26:30;;;;;;;9.63;3.45;;;;;;;10.11;100.00;99591.47;5040775;28;20074;-62
2023/02/17 08:28:56;;;;;;;8.05;3.80;;;;;;;10.18;100.00;99605.13;4999058;28;20034;-63
2023/02/17 08:31:26;;;;;;;7.82;4.50;;;;;;;10.20;100.00;99603.91;4972772;28;20467;-62
2023/02/17 08:33:51;;;;;;;10.02;4.05;;;;;;;10.19;100.00;99601.38;4964673;28;20034;-62
2023/02/17 08:36:21;;;;;;;7.45;3.60;;;;;;;10.19;100.00;99604.09;4960467;28;20035;-62
2023/02/17 08:38:49;;;;;;;11.05;4.20;;;;;;;10.17;100.00;99601.59;4966437;28;20433;-62
2023/02/17 08:41:23;;;;;;;4.65;3.00;;;;;;;10.22;100.00;99598.34;4972180;28;20110;-62
2023/02/17 08:43:49;;;;;;;6.47;2.97;;;;;;;10.34;100.00;99605.00;4982872;28;20118;-62
2023/02/17 08:46:16;;;;;;;5.57;3.17;;;;;;;10.47;100.00;99601.69;4972715;28;20034;-62
2023/02/17 08:48:42;;;;;;;6.45;3.28;;;;;;;10.54;100.00;99597.22;4964295;28;20034;-62
2023/02/17 08:51:15;;;;;;;10.50;3.40;;;;;;;10.65;100.00;99593.22;5025074;28;20035;-62
2023/02/17 08:53:41;;;;;;;7.80;3.00;;;;;;;10.57;100.00;99596.84;4965839;28;20030;-62
2023/02/17 08:56:10;;;;;;;6.25;2.97;;;;;;;10.57;100.00;99591.44;4969972;28;20038;-62
2023/02/17 08:58:35;;;;;;;;;;;;;;;10.56;100.00;99588.91;4981973;28;20031;-62
2023/02/17 09:01:01;;;;;;;5.50;2.97;;;;;;;10.47;100.00;99596.28;5028140;28;19920;-62
2023/02/17 09:03:27;;;;;;;5.20;2.90;;;;;;;10.33;100.00;99591.69;4964187;28;20034;-62
2023/02/17 09:05:54;;;;;;;7.07;3.00;;;;;;;10.22;100.00;99595.63;4986425;28;20026;-62
2023/02/17 09:08:20;;;;;;;6.47;3.20;;;;;;;10.21;100.00;99602.03;5036149;28;20035;-62
2023/02/17 09:10:45;;;;;;;4.10;2.65;;;;;;;10.23;100.00;99600.84;4999726;28;20030;-62
2023/02/17 09:13:11;;;;;;;7.32;3.30;;;;;;;10.29;100.00;99608.25;5006362;28;20061;-62
2023/02/17 09:15:37;;;;;;;13.63;4.40;;;;;;;10.38;100.00;99611.75;4983687;28;20030;-62
2023/02/17 09:18:03;;;;;;;14.15;3.80;;;;;;;10.43;100.00;99616.63;4959305;28;20018;-62
2023/02/17 09:20:28;;;;;;;9.48;3.53;;;;;;;10.41;100.00;99621.38;4980275;28;20401;-62
2023/02/17 09:22:54;;;;;;;6.18;2.90;;;;;;;10.40;100.00;99628.66;4979807;28;20079;-62
2023/02/17 09:25:19;;;;;;;8.35;3.17;;;;;;;10.36;100.00;99621.06;4975872;28;20030;-62
2023/02/17 09:27:44;;;;;;;8.10;2.90;;;;;;;10.32;100.00;99625.97;5005140;28;20022;-62
2023/02/17 09:30:10;;;;;;;5.90;2.53;;;;;;;10.42;100.00;99631.16;4968623;28;20054;-62
2023/02/17 09:32:36;;;;;;;6.50;2.70;;;;;;;10.45;100.00;99636.19;4959690;28;20031;-67
2023/02/17 09:35:04;;;;;;;4.05;2.25;;;;;;;10.49;100.00;99632.13;5021953;28;20026;-63
2023/02/17 09:37:31;;;;;;;5.70;2.70;;;;;;;10.48;100.00;99623.16;4959802;28;20023;-62
2023/02/17 09:39:56;;;;;;;4.75;2.47;;;;;;;10.50;100.00;99623.78;4952022;28;20494;-63
2023/02/17 09:42:24;;;;;;;3.63;2.45;;;;;;;10.52;100.00;99623.63;4987935;28;20038;-62
2023/02/17 09:44:58;;;;;;;4.13;2.40;;;;;;;10.58;100.00;99616.63;4982983;28;20034;-62
2023/02/17 09:47:29;;;;;;;5.68;2.80;;;;;;;10.71;100.00;99620.38;4969775;28;20034;-63
2023/02/17 09:50:24;;;;;;;5.50;2.85;;;;;;;10.83;100.00;99622.66;4972299;28;20050;-61
2023/02/17 09:53:04;;;;;;;6.47;3.10;;;;;;;10.89;100.00;99621.91;4970471;28;20046;-63
2023/02/17 09:55:40;;;;;;;8.40;3.63;;;;;;;10.84;100.00;99618.91;4986625;28;20030;-62
2023/02/17 09:58:17;;;;;;;5.18;3.05;;;;;;;10.74;100.00;99617.34;5007100;28;20023;-62
2023/02/17 10:00:52;;;;;;;7.70;3.40;;;;;;;10.67;100.00;99624.50;4966678;28;20026;-63
2023/02/17 10:03:31;;;;;;;6.93;3.30;;;;;;;10.86;100.00;99625.00;4979445;28;20031;-62
2023/02/17 10:06:20;;;;;;;6.63;3.80;;;;;;;10.93;100.00;99631.38;4974630;22;20047;-64
2023/02/17 10:08:49;;;;;;;5.97;3.38;;;;;;;11.00;100.00;99631.44;4929561;28;20115;-65
2023/02/17 10:11:32;;;;;;;6.45;3.58;;;;;;;11.22;100.00;99632.41;4936191;28;20028;-65
2023/02/17 10:14:06;;;;;;;7.00;3.10;;;;;;;11.36;100.00;99623.41;4932685;28;20028;-65
2023/02/17 10:16:37;;;;;;;6.50;2.97;;;;;;;11.27;100.00;99625.38;4936074;28;20056;-65
2023/02/17 10:19:31;;;;;;;6.45;3.15;;;;;;;11.34;100.00;99620.03;4919056;29;20024;-64
2023/02/17 10:22:18;;;;;;;7.60;3.08;;;;;;;11.22;100.00;99614.28;4932593;28;20040;-64
2023/02/17 10:24:43;;;;;;;5.90;2.88;;;;;;;11.52;100.00;99609.66;4930603;28;20070;-64
2023/02/17 10:27:14;;;;;;;6.93;2.70;;;;;;;11.67;100.00;99598.78;4925749;28;20059;-64
2023/02/17 10:29:57;;;;;;;7.50;3.85;;;;;;;12.05;100.00;99614.84;4938675;28;20376;-64
2023/02/17 10:32:25;;;;;;;6.78;3.67;;;;;;;12.40;100.00;99626.69;4928694;28;20986;-66
2023/02/17 10:35:13;;;;;;;8.80;3.50;;;;;;;12.22;100.00;99618.16;4925124;28;20472;-64
2023/02/17 10:37:47;;;;;;;4.32;2.30;;;;;;;11.98;100.00;99628.38;4927943;28;20023;-65
2023/02/17 10:40:21;;;;;;;3.58;2.10;;;;;;;11.71;100.00;99627.19;4926422;28;20503;-65
2023/02/17 10:42:50;;;;;;;3.47;1.60;;;;;;;11.62;100.00;99614.78;4921542;28;20422;-65
2023/02/17 10:45:35;;;;;;;2.67;1.30;;;;;;;11.66;100.00;99605.25;4930607;28;20026;-64
2023/02/17 10:48:06;;;;;;;2.38;1.20;;;;;;;11.82;100.00;99598.75;4923565;28;20109;-64
2023/02/17 10:50:32;;;;;;;3.50;1.30;;;;;;;11.96;100.00;99597.88;4923839;28;20368;-65
2023/02/17 10:52:57;;;;;;;3.15;1.25;;;;;;;11.87;100.00;99596.34;4923395;28;20065;-64
2023/02/17 10:55:40;;;;;;;2.45;1.30;;;;;;;12.19;100.00;99586.00;4922647;28;20717;-64
2023/02/17 10:58:16;;;;;;;3.13;1.20;;;;;;;12.23;100.00;99584.56;4920841;28;20111;-64
2023/02/17 11:00:42;;;;;;;1.05;0.70;;;;;;;12.03;100.00;99582.53;4919375;28;20032;-64
2023/02/17 11:03:19;;;;;;;2.10;1.15;;;;;;;11.72;100.00;99577.38;4926176;28;20028;-64
2023/02/17 11:05:53;;;;;;;1.33;0.80;;;;;;;11.77;100.00;99582.22;4926932;28;20032;-65
2023/02/17 11:08:45;;;;;;;1.70;0.73;;;;;;;11.92;100.00;99565.91;4927591;28;21273;-64
2023/02/17 11:11:21;;;;;;;0.90;0.68;;;;;;;11.96;100.00;99581.59;4928383;28;20097;-65
2023/02/17 11:13:50;;;;;;;1.77;0.88;;;;;;;12.22;100.00;99582.91;4926688;28;20572;-65
2023/02/17 11:17:05;;;;;;;0.90;0.60;;;;;;;12.38;100.00;99582.63;4953877;23;20108;-64
2023/02/17 11:19:34;;;;;;;3.92;0.50;;;;;;;12.27;100.00;99583.16;4970529;28;20038;-66
2023/02/17 11:22:28;;;;;;;0.70;0.50;;;;;;;12.17;100.00;99572.63;4958071;28;20038;-65
2023/02/17 11:25:00;;;;;;;0.70;0.45;;;;;;;12.10;100.00;99581.72;4950498;29;20089;-65
2023/02/17 11:27:27;;;;;;;1.35;0.47;;;;;;;11.91;100.00;99578.63;4967317;28;20043;-65
2023/02/17 11:29:54;;;;;;;1.60;0.65;;;;;;;11.75;100.00;99585.09;4967250;28;20030;-62
2023/02/17 11:32:53;;;;;;;1.13;0.50;;;;;;;11.63;100.00;99584.78;4966376;28;20050;-62
2023/02/17 11:35:45;;;;;;;3.78;0.50;;;;;;;11.68;100.00;99583.34;4972591;28;20118;-63
2023/02/17 11:38:15;;;;;;;1.30;0.50;;;;;;;11.81;100.00;99569.94;4965737;28;20479;-63
2023/02/17 11:40:51;;;;;;;2.10;0.63;;;;;;;11.83;100.00;99578.72;4948410;28;20039;-62
2023/02/17 11:43:19;;;;;;;1.55;0.65;;;;;;;11.99;100.00;99574.97;4948937;28;20076;-62
2023/02/17 11:45:59;;;;;;;0.73;0.60;;;;;;;12.10;100.00;99576.31;4952526;29;20038;-65